Time;durP1;ratioP1;P1;durP2;ratioP2;P2;SDS_P1;SDS_P2;PMS_P1;PMS_P2;Temp;Humidity;BMP_temperature;BMP_pressure;BME280_temperature;BME280_humidity;BME280_pressure;Samples;Min_cycle;Max_cycle;Signal;HPM_P1;HPM_P2
2021/01/18 00:00:55;;;;;;;6.57;2.97;;;14.90;56.40;;;;;;2097533;28;20489;-75
2021/01/18 00:01:57;;;;;;;10.65;3.75;;;15.00;55.70;;;;;;2097135;28;20076;-80
2021/01/18 00:03:01;;;;;;;8.95;4.05;;;15.10;55.40;;;;;;2097217;28;20044;-76
2021/01/18 00:04:04;;;;;;;9.77;3.70;;;15.00;54.80;;;;;;2097300;28;20048;-77
2021/01/18 00:05:07;;;;;;;9.20;3.72;;;15.00;54.80;;;;;;2097432;28;20139;-75
2021/01/18 00:06:13;;;;;;;8.20;3.70;;;15.10;54.90;;;;;;2097095;28;20049;-77
2021/01/18 00:07:14;;;;;;;6.32;3.35;;;15.20;55.10;;;;;;2097286;28;20060;-77
2021/01/18 00:08:16;;;;;;;7.93;3.55;;;15.20;54.80;;;;;;2097059;28;20048;-76
2021/01/18 00:09:18;;;;;;;7.75;2.95;;;15.40;54.80;;;;;;2098289;28;20040;-74
2021/01/18 00:10:21;;;;;;;11.15;5.10;;;15.50;54.40;;;;;;2098662;28;20052;-74
2021/01/18 00:11:23;;;;;;;8.77;3.63;;;14.90;52.90;;;;;;2097782;28;20048;-75
2021/01/18 00:12:24;;;;;;;11.30;4.05;;;15.20;55.30;;;;;;2097381;28;20040;-75
2021/01/18 00:13:26;;;;;;;8.15;3.15;;;15.20;54.40;;;;;;2097244;28;20067;-78
2021/01/18 00:14:28;;;;;;;9.38;3.95;;;15.30;54.80;;;;;;2097274;28;20054;-76
2021/01/18 00:15:29;;;;;;;9.05;3.85;;;15.30;54.70;;;;;;2097265;28;20049;-76
2021/01/18 00:16:32;;;;;;;8.93;3.70;;;15.40;54.70;;;;;;2097180;28;20041;-78
2021/01/18 00:17:34;;;;;;;9.30;4.00;;;15.50;54.20;;;;;;2096643;28;20080;-76
2021/01/18 00:18:36;;;;;;;8.52;3.65;;;15.60;53.70;;;;;;2096435;28;20071;-75
2021/01/18 00:19:38;;;;;;;9.63;4.35;;;15.40;53.80;;;;;;2097289;28;20045;-76
2021/01/18 00:20:40;;;;;;;7.97;3.58;;;15.30;53.50;;;;;;2097467;28;20600;-75
2021/01/18 00:21:44;;;;;;;8.25;3.30;;;15.20;54.70;;;;;;2097748;28;20048;-75
2021/01/18 00:22:47;;;;;;;9.82;3.35;;;15.30;54.80;;;;;;2098054;28;20053;-75
2021/01/18 00:23:49;;;;;;;7.75;3.17;;;15.30;54.70;;;;;;2097266;28;20045;-75
2021/01/18 00:24:50;;;;;;;7.57;3.88;;;15.30;54.50;;;;;;2098493;28;20053;-74
2021/01/18 00:25:52;;;;;;;8.20;3.58;;;15.30;54.40;;;;;;2099597;28;20075;-76
2021/01/18 00:26:54;;;;;;;8.25;3.47;;;15.40;54.40;;;;;;2099493;28;20086;-77
2021/01/18 00:27:56;;;;;;;7.72;3.65;;;15.30;53.90;;;;;;2099488;28;20090;-75
2021/01/18 00:28:58;;;;;;;7.80;3.42;;;15.30;54.60;;;;;;2099459;28;20055;-75
2021/01/18 00:29:59;;;;;;;6.35;3.22;;;15.40;54.60;;;;;;2099586;28;20064;-77
2021/01/18 00:31:02;;;;;;;9.43;3.70;;;15.40;54.30;;;;;;2100062;28;20459;-75
2021/01/18 00:32:05;;;;;;;7.80;3.70;;;15.50;54.40;;;;;;2100045;28;20041;-75
2021/01/18 00:33:06;;;;;;;11.27;3.58;;;15.50;53.80;;;;;;2099098;28;20041;-75
2021/01/18 00:34:08;;;;;;;6.78;3.38;;;15.60;54.00;;;;;;2099331;28;20051;-74
2021/01/18 00:35:13;;;;;;;9.40;3.95;;;15.60;53.70;;;;;;2100749;28;20056;-78
2021/01/18 00:36:15;;;;;;;8.10;3.53;;;15.50;53.50;;;;;;2100579;28;20052;-80
2021/01/18 00:37:16;;;;;;;10.48;4.43;;;15.40;53.30;;;;;;2100748;28;20044;-82
2021/01/18 00:38:19;;;;;;;8.38;3.60;;;15.30;54.00;;;;;;2100408;28;20057;-76
2021/01/18 00:39:21;;;;;;;9.52;3.58;;;15.40;54.30;;;;;;2100395;28;20070;-79
2021/01/18 00:40:24;;;;;;;8.75;3.70;;;15.40;53.80;;;;;;2100439;28;20055;-75
2021/01/18 00:41:26;;;;;;;11.48;3.83;;;15.50;54.20;;;;;;2100178;28;20503;-75
2021/01/18 00:42:27;;;;;;;7.70;3.35;;;15.60;53.90;;;;;;2099335;28;20048;-76
2021/01/18 00:43:29;;;;;;;8.95;3.92;;;15.60;53.90;;;;;;2098251;28;20405;-76
2021/01/18 00:44:31;;;;;;;9.40;3.92;;;15.60;53.80;;;;;;2098333;28;20041;-76
2021/01/18 00:45:33;;;;;;;7.25;3.47;;;15.50;53.60;;;;;;2097735;28;20056;-75
2021/01/18 00:46:35;;;;;;;7.15;3.35;;;15.50;53.50;;;;;;2101196;28;20048;-75
2021/01/18 00:47:41;;;;;;;8.07;3.22;;;15.40;53.80;;;;;;2097951;28;20489;-75
2021/01/18 00:48:43;;;;;;;7.03;3.30;;;15.60;54.10;;;;;;2098208;28;20122;-75
2021/01/18 00:49:44;;;;;;;9.25;3.55;;;15.60;53.90;;;;;;2097488;28;20526;-77
2021/01/18 00:50:47;;;;;;;8.52;3.65;;;15.70;53.70;;;;;;2089818;28;20076;-75
2021/01/18 00:51:49;;;;;;;8.40;3.60;;;15.70;53.30;;;;;;2090573;28;20045;-75
2021/01/18 00:52:52;;;;;;;8.88;3.80;;;15.70;53.60;;;;;;2092582;28;20436;-74
2021/01/18 00:53:54;;;;;;;7.90;3.72;;;15.60;53.40;;;;;;2097595;28;20477;-77
2021/01/18 00:54:56;;;;;;;9.55;4.03;;;15.70;53.50;;;;;;2097284;28;20045;-76
2021/01/18 00:55:57;;;;;;;7.30;3.10;;;15.60;53.40;;;;;;2098449;28;20059;-76
2021/01/18 00:56:59;;;;;;;6.78;3.20;;;15.50;53.90;;;;;;2098352;28;20110;-77
2021/01/18 00:58:01;;;;;;;;;;;15.60;54.00;;;;;;2098897;28;20053;-75
2021/01/18 00:59:02;;;;;;;10.00;3.90;;;15.70;53.90;;;;;;2098402;28;19920;-76
2021/01/18 01:00:05;;;;;;;;;;;15.60;53.80;;;;;;2098799;28;20446;-75
2021/01/18 01:01:07;;;;;;;7.70;3.28;;;15.60;53.60;;;;;;2098655;28;19920;-75
2021/01/18 01:02:09;;;;;;;8.23;3.55;;;15.60;53.70;;;;;;2098409;28;20052;-80
2021/01/18 01:03:11;;;;;;;8.88;3.33;;;15.50;53.70;;;;;;2098466;28;20506;-75
2021/01/18 01:04:12;;;;;;;7.38;3.28;;;15.50;53.80;;;;;;2098453;28;20048;-75
2021/01/18 01:05:16;;;;;;;9.48;3.10;;;15.50;53.90;;;;;;2098562;28;20059;-75
2021/01/18 01:06:18;;;;;;;7.57;4.00;;;15.50;53.90;;;;;;2098282;28;20032;-77
2021/01/18 01:07:20;;;;;;;8.30;3.70;;;15.60;53.80;;;;;;2098631;28;20048;-75
2021/01/18 01:08:21;;;;;;;;;;;15.60;53.80;;;;;;2098757;28;20048;-74
2021/01/18 01:09:23;;;;;;;11.38;3.55;;;15.60;53.70;;;;;;2098445;28;19920;-75
2021/01/18 01:10:26;;;;;;;8.07;3.30;;;15.50;53.70;;;;;;2098595;28;20049;-80
2021/01/18 01:11:28;;;;;;;7.18;3.20;;;15.50;54.00;;;;;;2098456;28;20053;-77
2021/01/18 01:12:29;;;;;;;8.48;3.65;;;15.50;54.00;;;;;;2098470;28;20044;-75
2021/01/18 01:13:31;;;;;;;8.15;3.40;;;15.40;53.90;;;;;;2098555;28;20048;-77
2021/01/18 01:14:32;;;;;;;5.80;2.80;;;15.50;54.00;;;;;;2098373;28;20055;-75
2021/01/18 01:15:35;;;;;;;9.45;3.20;;;15.50;53.90;;;;;;2097797;28;20064;-75
2021/01/18 01:16:37;;;;;;;7.15;3.33;;;15.60;53.90;;;;;;2097682;28;20095;-76
2021/01/18 01:17:42;;;;;;;8.55;3.38;;;15.60;53.80;;;;;;2098359;28;20048;-75
2021/01/18 01:18:44;;;;;;;6.97;3.20;;;15.60;53.80;;;;;;2097475;28;20044;-75
2021/01/18 01:19:46;;;;;;;8.07;3.63;;;15.50;53.70;;;;;;2097807;28;20041;-75
2021/01/18 01:20:47;;;;;;;8.70;3.58;;;15.60;53.90;;;;;;2098160;28;20051;-75
2021/01/18 01:21:50;;;;;;;8.27;2.95;;;15.50;53.70;;;;;;2098346;28;20045;-75
2021/01/18 01:22:53;;;;;;;7.93;3.92;;;15.50;53.70;;;;;;2098235;28;20055;-78
2021/01/18 01:23:55;;;;;;;7.68;3.42;;;15.60;53.80;;;;;;2098254;28;20056;-75
2021/01/18 01:24:56;;;;;;;7.60;2.90;;;15.60;53.80;;;;;;2098166;28;20051;-77
2021/01/18 01:25:58;;;;;;;8.52;3.10;;;15.60;53.70;;;;;;2098377;28;20202;-75
2021/01/18 01:27:00;;;;;;;9.38;3.15;;;15.60;53.60;;;;;;2098357;28;20413;-75
2021/01/18 01:28:02;;;;;;;7.03;2.88;;;15.60;53.70;;;;;;2098361;28;20101;-76
2021/01/18 01:29:03;;;;;;;7.63;3.40;;;15.60;53.80;;;;;;2098298;28;20059;-74
2021/01/18 01:30:07;;;;;;;8.32;3.17;;;15.60;53.70;;;;;;2098253;28;20041;-76
2021/01/18 01:31:09;;;;;;;8.25;3.20;;;15.50;53.70;;;;;;2098363;28;20093;-75
2021/01/18 01:32:10;;;;;;;5.72;2.80;;;15.60;53.70;;;;;;2097933;28;20107;-75
2021/01/18 01:33:13;;;;;;;9.07;3.83;;;15.70;53.60;;;;;;2097803;28;20048;-76
2021/01/18 01:34:15;;;;;;;9.27;3.42;;;15.60;53.50;;;;;;2098598;28;20040;-74
2021/01/18 01:35:18;;;;;;;7.15;3.20;;;15.60;53.50;;;;;;2099629;28;20066;-75
2021/01/18 01:36:21;;;;;;;9.77;4.35;;;15.60;53.60;;;;;;2099790;28;20056;-76
2021/01/18 01:37:23;;;;;;;;;;;15.60;53.40;;;;;;2099993;28;20529;-75
2021/01/18 01:38:25;;;;;;;8.35;3.63;;;15.70;53.50;;;;;;2101168;28;19931;-77
2021/01/18 01:39:27;;;;;;;6.53;3.08;;;15.60;53.40;;;;;;2100888;28;20049;-74
2021/01/18 01:40:28;;;;;;;7.75;3.28;;;15.60;53.40;;;;;;2101206;28;20052;-76
2021/01/18 01:41:30;;;;;;;7.55;3.20;;;15.70;53.50;;;;;;2101236;28;20358;-75
2021/01/18 01:42:32;;;;;;;6.57;3.03;;;15.70;53.40;;;;;;2101039;28;20048;-75
2021/01/18 01:43:33;;;;;;;6.60;3.58;;;15.60;53.40;;;;;;2101324;28;20052;-77
2021/01/18 01:44:35;;;;;;;8.15;3.15;;;15.60;53.20;;;;;;2108913;28;20045;-75
2021/01/18 01:45:37;;;;;;;5.80;3.15;;;15.50;53.60;;;;;;2108719;28;20044;-75
2021/01/18 01:46:38;;;;;;;7.03;3.47;;;15.40;53.60;;;;;;2101264;28;20044;-76
2021/01/18 01:47:43;;;;;;;6.63;3.20;;;15.40;53.90;;;;;;2100130;28;20049;-77
2021/01/18 01:48:45;;;;;;;8.00;2.88;;;15.50;53.80;;;;;;2098856;28;20051;-75
2021/01/18 01:49:46;;;;;;;7.15;3.40;;;15.60;53.60;;;;;;2098082;28;20160;-74
2021/01/18 01:50:48;;;;;;;5.93;2.92;;;15.60;53.40;;;;;;2097590;28;20045;-76
2021/01/18 01:51:50;;;;;;;9.35;3.30;;;15.40;53.30;;;;;;2099013;28;20299;-75
2021/01/18 01:52:56;;;;;;;8.98;3.35;;;15.50;53.70;;;;;;2099902;28;20049;-74
2021/01/18 01:53:59;;;;;;;12.90;3.38;;;15.60;53.70;;;;;;2099698;28;20115;-76
2021/01/18 01:55:04;;;;;;;8.70;3.55;;;15.60;53.60;;;;;;2099035;28;20052;-77
2021/01/18 01:56:07;;;;;;;8.40;3.28;;;15.60;53.40;;;;;;2098561;28;20052;-75
2021/01/18 01:57:09;;;;;;;7.50;2.97;;;15.70;53.50;;;;;;2098803;28;20052;-75
2021/01/18 01:58:12;;;;;;;7.90;3.35;;;15.70;53.30;;;;;;2098676;28;20060;-75
2021/01/18 01:59:15;;;;;;;7.70;3.58;;;15.70;53.40;;;;;;2098046;28;20115;-76
2021/01/18 02:00:18;;;;;;;8.07;3.40;;;15.60;53.30;;;;;;2098050;28;20508;-79
2021/01/18 02:01:21;;;;;;;7.60;2.85;;;15.60;53.30;;;;;;2098614;28;20056;-75
2021/01/18 02:02:24;;;;;;;6.07;3.35;;;15.60;53.40;;;;;;2098741;28;20508;-78
2021/01/18 02:03:35;;;;;;;9.32;3.70;;;15.60;53.40;;;;;;2098488;28;20044;-77
2021/01/18 02:04:38;;;;;;;9.80;2.67;;;15.60;53.40;;;;;;2098109;28;20048;-78
2021/01/18 02:05:40;;;;;;;11.13;3.53;;;15.60;53.40;;;;;;2097909;28;20041;-74
2021/01/18 02:06:41;;;;;;;5.80;2.92;;;15.70;53.40;;;;;;2097853;28;20041;-76
2021/01/18 02:07:43;;;;;;;5.68;3.08;;;15.70;53.20;;;;;;2097989;28;20049;-77
2021/01/18 02:08:46;;;;;;;8.73;3.33;;;15.60;53.20;;;;;;2098049;28;20071;-75
2021/01/18 02:09:48;;;;;;;7.85;3.25;;;15.70;53.20;;;;;;2097995;28;20060;-79
2021/01/18 02:10:50;;;;;;;8.43;4.05;;;15.60;53.20;;;;;;2097842;28;20055;-75
2021/01/18 02:11:51;;;;;;;6.78;3.22;;;15.60;53.10;;;;;;2097915;28;20055;-75
2021/01/18 02:12:54;;;;;;;7.28;2.97;;;15.60;53.10;;;;;;2097765;28;20087;-74
2021/01/18 02:14:12;;;;;;;9.13;3.05;;;15.60;53.20;;;;;;2097817;28;20067;-74
2021/01/18 02:15:25;;;;;;;7.85;3.20;;;15.70;53.20;;;;;;2097805;28;20052;-75
2021/01/18 02:16:30;;;;;;;8.23;3.67;;;15.70;53.00;;;;;;2097778;28;20504;-75
2021/01/18 02:17:43;;;;;;;7.97;3.33;;;15.50;52.60;;;;;;2097743;28;20417;-77
2021/01/18 02:19:02;;;;;;;6.60;2.95;;;15.30;53.10;;;;;;2097205;28;20045;-75
2021/01/18 02:20:45;;;;;;;7.95;3.00;;;15.40;53.60;;;;;;2097384;28;20496;-77
2021/01/18 02:22:37;;;;;;;7.15;2.90;;;15.40;53.70;;;;;;2097243;28;20059;-75
2021/01/18 02:24:04;;;;;;;8.18;3.08;;;15.60;53.40;;;;;;2097592;28;20056;-75
2021/01/18 02:25:21;;;;;;;8.05;2.92;;;15.60;53.40;;;;;;2097774;28;20055;-74
2021/01/18 02:26:40;;;;;;;9.52;3.53;;;15.60;53.30;;;;;;2097236;28;20044;-74
2021/01/18 02:28:06;;;;;;;6.40;3.33;;;15.40;53.10;;;;;;2097249;28;20053;-77
2021/01/18 02:29:23;;;;;;;6.63;3.40;;;15.40;53.40;;;;;;2097715;28;20063;-75
2021/01/18 02:30:43;;;;;;;6.90;2.80;;;15.40;53.50;;;;;;2097621;28;20048;-75
2021/01/18 02:32:13;;;;;;;7.32;3.10;;;15.40;53.60;;;;;;2097781;28;20073;-74
2021/01/18 02:33:39;;;;;;;8.75;3.17;;;15.50;54.00;;;;;;2097631;28;20049;-75
2021/01/18 02:35:01;;;;;;;8.82;3.10;;;15.50;53.40;;;;;;2097594;28;20511;-75
2021/01/18 02:36:16;;;;;;;7.55;3.13;;;15.50;54.10;;;;;;2097740;28;20385;-75
2021/01/18 02:37:40;;;;;;;6.50;2.70;;;15.40;53.50;;;;;;2097001;28;20406;-76
2021/01/18 02:38:53;;;;;;;7.05;3.10;;;15.50;53.40;;;;;;2097307;28;20044;-77
2021/01/18 02:39:59;;;;;;;;;;;15.50;53.20;;;;;;2098158;28;20127;-75
2021/01/18 02:41:20;;;;;;;7.18;3.25;;;15.50;52.90;;;;;;2098274;28;19920;-74
2021/01/18 02:42:28;;;;;;;8.10;3.20;;;15.30;53.20;;;;;;2099152;28;20064;-76
2021/01/18 02:43:36;;;;;;;8.02;3.20;;;15.30;53.40;;;;;;2099265;28;20049;-75
2021/01/18 02:44:39;;;;;;;5.85;3.00;;;15.30;52.60;;;;;;2099356;28;20044;-75
2021/01/18 02:45:41;;;;;;;8.15;3.40;;;15.40;53.70;;;;;;2099271;28;20052;-76
2021/01/18 02:46:46;;;;;;;7.68;3.25;;;15.30;53.20;;;;;;2106870;28;20059;-75
2021/01/18 02:47:49;;;;;;;9.88;3.63;;;15.30;53.30;;;;;;2105984;28;20071;-76
2021/01/18 02:48:51;;;;;;;6.35;3.30;;;15.40;53.10;;;;;;2099433;28;20072;-74
2021/01/18 02:49:56;;;;;;;6.70;3.08;;;15.40;53.40;;;;;;2099276;28;20049;-74
2021/01/18 02:51:03;;;;;;;8.95;3.22;;;15.50;53.50;;;;;;2099287;28;20257;-75
2021/01/18 02:52:09;;;;;;;7.60;3.47;;;15.40;53.10;;;;;;2099140;28;20052;-75
2021/01/18 02:53:10;;;;;;;7.88;3.03;;;15.40;53.30;;;;;;2098480;28;20045;-74
2021/01/18 02:54:12;;;;;;;6.72;2.97;;;15.50;53.30;;;;;;2097694;28;20064;-75
2021/01/18 02:55:18;;;;;;;8.98;3.22;;;15.50;53.20;;;;;;2097654;28;20075;-75
2021/01/18 02:56:24;;;;;;;8.77;3.20;;;15.50;53.20;;;;;;2097561;28;20509;-76
2021/01/18 02:57:27;;;;;;;8.13;3.10;;;15.60;53.20;;;;;;2097612;28;20060;-75
2021/01/18 02:58:35;;;;;;;7.68;3.20;;;15.40;52.70;;;;;;2097457;28;20551;-74
2021/01/18 02:59:36;;;;;;;7.63;2.97;;;15.40;53.30;;;;;;2097669;28;20049;-76
2021/01/18 03:00:42;;;;;;;7.03;3.58;;;15.40;53.40;;;;;;2097772;28;20044;-74
2021/01/18 03:02:06;;;;;;;8.68;3.95;;;15.30;54.00;;;;;;2097702;28;20051;-76
2021/01/18 03:03:13;;;;;;;8.27;3.40;;;15.30;53.60;;;;;;2097499;28;20045;-74
2021/01/18 03:04:27;;;;;;;6.90;3.22;;;15.40;53.30;;;;;;2097605;28;20048;-74
2021/01/18 03:05:37;;;;;;;8.63;3.20;;;15.50;53.30;;;;;;2097539;28;20484;-76
2021/01/18 03:06:46;;;;;;;7.35;3.30;;;15.40;53.00;;;;;;2097544;28;20476;-78
2021/01/18 03:08:00;;;;;;;9.13;3.13;;;15.40;53.20;;;;;;2097552;28;20048;-76
2021/01/18 03:09:10;;;;;;;8.30;3.63;;;15.40;53.40;;;;;;2097604;28;20052;-76
2021/01/18 03:10:18;;;;;;;8.43;3.38;;;15.20;52.90;;;;;;2097745;28;20048;-74
2021/01/18 03:11:25;;;;;;;8.15;3.50;;;15.30;53.50;;;;;;2097393;28;20052;-75
2021/01/18 03:12:35;;;;;;;7.68;3.45;;;15.40;53.60;;;;;;2097330;28;20198;-75
2021/01/18 03:13:44;;;;;;;6.93;3.15;;;15.50;53.40;;;;;;2097029;28;20075;-74
2021/01/18 03:14:48;;;;;;;10.90;3.25;;;15.40;53.20;;;;;;2097161;28;20052;-76
2021/01/18 03:15:55;;;;;;;8.18;3.13;;;15.50;53.30;;;;;;2097512;28;20051;-75
2021/01/18 03:16:58;;;;;;;7.70;3.03;;;15.40;53.20;;;;;;2097492;28;20048;-74
2021/01/18 03:18:02;;;;;;;8.60;3.03;;;15.40;53.10;;;;;;2097581;28;20214;-74
2021/01/18 03:19:05;;;;;;;8.23;3.10;;;15.40;53.00;;;;;;2097335;28;20080;-74
2021/01/18 03:20:09;;;;;;;9.48;3.50;;;15.50;53.10;;;;;;2097645;28;20053;-76
2021/01/18 03:21:11;;;;;;;7.20;3.00;;;15.50;53.00;;;;;;2097958;28;20048;-74
2021/01/18 03:22:23;;;;;;;6.78;3.28;;;15.60;53.10;;;;;;2098103;28;20051;-76
2021/01/18 03:23:29;;;;;;;7.72;3.10;;;15.50;52.90;;;;;;2098019;28;20075;-74
2021/01/18 03:24:30;;;;;;;6.18;3.05;;;15.40;53.00;;;;;;2098306;28;20044;-76
2021/01/18 03:25:32;;;;;;;7.75;3.30;;;15.50;53.00;;;;;;2100081;28;20370;-74
2021/01/18 03:26:34;;;;;;;7.88;3.35;;;15.50;52.80;;;;;;2107797;28;20028;-74
2021/01/18 03:27:49;;;;;;;5.70;3.08;;;15.40;52.90;;;;;;2107828;28;20034;-75
2021/01/18 03:28:51;;;;;;;7.53;3.22;;;15.60;53.00;;;;;;2107897;28;20045;-76
2021/01/18 03:29:53;;;;;;;7.95;3.17;;;15.50;52.80;;;;;;2107508;28;20033;-76
2021/01/18 03:30:54;;;;;;;7.30;3.20;;;15.60;52.80;;;;;;2107715;28;20048;-75
2021/01/18 03:31:56;;;;;;;7.38;3.97;;;15.60;52.90;;;;;;2106288;28;20049;-74
2021/01/18 03:32:58;;;;;;;;;;;15.50;52.80;;;;;;2104389;28;20108;-74
2021/01/18 03:33:59;;;;;;;9.18;3.17;;;15.50;52.90;;;;;;2105885;28;19959;-74
2021/01/18 03:35:01;;;;;;;8.02;3.80;;;15.50;52.60;;;;;;2105574;28;20048;-74
2021/01/18 03:36:03;;;;;;;7.68;2.90;;;15.40;53.00;;;;;;2098062;28;20048;-74
2021/01/18 03:37:05;;;;;;;11.15;4.10;;;15.40;53.00;;;;;;2097700;28;20068;-74
2021/01/18 03:38:07;;;;;;;8.88;3.20;;;15.60;53.00;;;;;;2097439;28;20063;-76
2021/01/18 03:39:09;;;;;;;;;;;15.50;52.80;;;;;;2097432;28;20114;-75
2021/01/18 03:40:12;;;;;;;5.50;2.75;;;15.50;52.60;;;;;;2097447;28;20272;-74
2021/01/18 03:41:13;;;;;;;7.00;2.88;;;15.50;53.10;;;;;;2097251;28;20496;-75
2021/01/18 03:42:16;;;;;;;7.40;3.30;;;15.40;52.90;;;;;;2097502;28;20049;-75
2021/01/18 03:43:18;;;;;;;;;;;15.40;53.10;;;;;;2097893;28;20517;-74
2021/01/18 03:44:20;;;;;;;6.13;2.78;;;15.50;53.10;;;;;;2097906;28;20151;-77
2021/01/18 03:45:23;;;;;;;6.35;3.25;;;15.50;53.00;;;;;;2098764;28;20439;-74
2021/01/18 03:46:25;;;;;;;7.43;2.83;;;15.50;52.90;;;;;;2098751;28;20044;-76
2021/01/18 03:47:27;;;;;;;7.93;2.95;;;15.50;52.80;;;;;;2099577;28;20481;-76
2021/01/18 03:48:28;;;;;;;6.57;2.70;;;15.50;52.90;;;;;;2098982;28;20436;-75
2021/01/18 03:49:30;;;;;;;8.13;3.25;;;15.50;53.00;;;;;;2098356;28;20044;-75
2021/01/18 03:50:32;;;;;;;5.13;3.35;;;15.50;52.90;;;;;;2098414;28;20512;-74
2021/01/18 03:51:33;;;;;;;7.75;3.65;;;15.50;53.00;;;;;;2098333;28;20053;-74
2021/01/18 03:52:35;;;;;;;8.10;3.15;;;15.50;53.00;;;;;;2098540;28;20050;-75
2021/01/18 03:53:37;;;;;;;7.53;2.70;;;15.50;52.80;;;;;;2098915;28;20041;-75
2021/01/18 03:54:39;;;;;;;8.95;3.33;;;15.60;53.00;;;;;;2098630;28;20052;-74
2021/01/18 03:55:41;;;;;;;9.70;3.05;;;15.70;52.80;;;;;;2098790;28;20041;-74
2021/01/18 03:56:43;;;;;;;7.00;3.72;;;15.70;52.70;;;;;;2098787;28;20052;-76
2021/01/18 03:57:46;;;;;;;9.85;3.67;;;15.60;52.50;;;;;;2098400;28;20550;-77
2021/01/18 03:58:48;;;;;;;6.90;3.15;;;15.30;52.20;;;;;;2098383;28;20489;-74
2021/01/18 03:59:50;;;;;;;11.93;3.88;;;15.30;53.00;;;;;;2098498;28;20048;-75
2021/01/18 04:00:52;;;;;;;7.28;3.28;;;15.40;52.60;;;;;;2098961;28;20504;-75
2021/01/18 04:01:54;;;;;;;10.77;3.78;;;15.00;53.30;;;;;;2099042;28;20056;-75
2021/01/18 04:02:56;;;;;;;7.97;3.10;;;15.10;53.30;;;;;;2098837;28;20451;-75
2021/01/18 04:03:58;;;;;;;6.38;3.13;;;15.10;54.00;;;;;;2098886;28;20049;-76
2021/01/18 04:05:00;;;;;;;11.52;3.92;;;15.20;53.60;;;;;;2099140;28;20041;-73
2021/01/18 04:06:01;;;;;;;9.45;3.40;;;15.00;53.00;;;;;;2098884;28;20288;-74
2021/01/18 04:07:07;;;;;;;5.85;2.90;;;15.00;53.90;;;;;;2098986;28;20053;-76
2021/01/18 04:08:09;;;;;;;7.28;2.72;;;15.10;54.00;;;;;;2098134;28;20052;-75
2021/01/18 04:09:11;;;;;;;5.78;2.65;;;15.10;54.00;;;;;;2098265;28;20060;-77
2021/01/18 04:10:15;;;;;;;8.35;3.17;;;15.20;53.90;;;;;;2098920;28;20511;-75
2021/01/18 04:11:18;;;;;;;7.45;3.20;;;15.20;53.50;;;;;;2098801;28;20056;-74
2021/01/18 04:12:20;;;;;;;9.77;3.45;;;15.30;52.90;;;;;;2098668;28;20554;-75
2021/01/18 04:13:21;;;;;;;10.63;3.30;;;15.30;53.40;;;;;;2098833;28;20083;-74
2021/01/18 04:14:23;;;;;;;7.07;3.22;;;15.30;53.10;;;;;;2098747;28;20041;-74
2021/01/18 04:15:26;;;;;;;7.18;3.10;;;15.30;53.60;;;;;;2098507;28;20079;-75
2021/01/18 04:16:28;;;;;;;9.40;2.47;;;15.30;53.40;;;;;;2097973;28;20509;-74
2021/01/18 04:17:29;;;;;;;7.40;2.88;;;15.30;53.20;;;;;;2098205;28;20083;-75
2021/01/18 04:18:31;;;;;;;10.95;3.13;;;15.30;53.40;;;;;;2098742;28;20275;-75
2021/01/18 04:19:33;;;;;;;7.82;2.85;;;15.30;52.90;;;;;;2098452;28;20044;-76
2021/01/18 04:20:34;;;;;;;10.20;3.20;;;15.10;53.10;;;;;;2098933;28;20048;-75
2021/01/18 04:21:37;;;;;;;6.07;2.70;;;15.20;53.20;;;;;;2098066;28;20405;-74
2021/01/18 04:22:44;;;;;;;7.97;3.13;;;15.20;53.40;;;;;;2098172;28;20044;-74
2021/01/18 04:23:46;;;;;;;9.60;3.42;;;15.20;53.50;;;;;;2098780;28;20049;-77
2021/01/18 04:24:47;;;;;;;9.80;3.25;;;15.20;53.30;;;;;;2098797;28;20045;-75
2021/01/18 04:25:50;;;;;;;8.98;2.67;;;15.20;53.70;;;;;;2098922;28;20048;-75
2021/01/18 04:26:51;;;;;;;9.82;2.63;;;15.20;53.60;;;;;;2098897;28;20045;-74
2021/01/18 04:27:55;;;;;;;7.88;2.83;;;15.30;53.70;;;;;;2098764;28;20048;-75
2021/01/18 04:28:57;;;;;;;5.63;2.60;;;15.40;53.40;;;;;;2098056;28;20052;-74
2021/01/18 04:29:58;;;;;;;8.73;2.97;;;15.40;53.20;;;;;;2098107;28;20052;-78
2021/01/18 04:31:05;;;;;;;8.45;2.42;;;15.40;53.00;;;;;;2098748;28;20059;-75
2021/01/18 04:32:06;;;;;;;8.32;3.15;;;15.40;53.10;;;;;;2098548;28;20481;-74
2021/01/18 04:33:09;;;;;;;7.80;3.13;;;15.20;52.90;;;;;;2098656;28;20056;-75
2021/01/18 04:34:10;;;;;;;;;;;15.30;53.30;;;;;;2099206;28;20051;-74
2021/01/18 04:35:12;;;;;;;6.57;2.78;;;15.20;52.80;;;;;;2098589;28;19928;-72
2021/01/18 04:36:14;;;;;;;6.70;2.92;;;15.20;53.80;;;;;;2097939;28;20511;-75
2021/01/18 04:37:16;;;;;;;;;;;15.20;53.50;;;;;;2099494;28;20048;-76
2021/01/18 04:38:18;;;;;;;11.05;3.28;;;15.10;52.10;;;;;;2098663;28;20400;-75
2021/01/18 04:39:19;;;;;;;9.50;3.50;;;14.90;53.60;;;;;;2098783;28;20048;-74
2021/01/18 04:40:22;;;;;;;7.43;2.88;;;15.00;54.10;;;;;;2106390;28;20083;-75
2021/01/18 04:41:25;;;;;;;5.88;2.78;;;15.00;54.20;;;;;;2106381;28;20056;-74
2021/01/18 04:42:27;;;;;;;5.88;2.58;;;15.00;54.00;;;;;;2098848;28;20056;-75
2021/01/18 04:43:29;;;;;;;5.32;2.50;;;15.10;54.00;;;;;;2098909;28;20049;-75
2021/01/18 04:44:31;;;;;;;5.15;2.60;;;15.20;53.90;;;;;;2098997;28;20049;-75
2021/01/18 04:45:32;;;;;;;8.32;2.33;;;15.30;53.80;;;;;;2099058;28;20067;-74
2021/01/18 04:46:38;;;;;;;10.30;3.28;;;15.30;53.20;;;;;;2098713;28;20048;-76
2021/01/18 04:47:41;;;;;;;5.95;2.85;;;15.20;53.40;;;;;;2098913;28;20064;-77
2021/01/18 04:48:43;;;;;;;9.20;3.35;;;15.20;53.60;;;;;;2099156;28;20041;-74
2021/01/18 04:49:47;;;;;;;5.50;2.60;;;14.80;52.80;;;;;;2099415;28;20044;-75
2021/01/18 04:50:49;;;;;;;7.22;3.05;;;15.00;54.30;;;;;;2100217;28;20053;-74
2021/01/18 04:51:52;;;;;;;;;;;15.00;54.10;;;;;;2100858;28;20056;-75
2021/01/18 04:52:55;;;;;;;8.10;2.20;;;15.00;54.10;;;;;;2092766;28;20389;-76
2021/01/18 04:53:59;;;;;;;7.20;2.55;;;15.10;54.20;;;;;;2100400;28;20041;-75
2021/01/18 04:55:03;;;;;;;6.00;2.35;;;15.20;53.90;;;;;;2100766;28;20131;-75
2021/01/18 04:56:19;;;;;;;7.22;2.70;;;15.20;53.80;;;;;;2101189;28;20095;-75
2021/01/18 04:57:26;;;;;;;7.20;2.60;;;15.20;53.70;;;;;;2100949;28;20409;-75
2021/01/18 04:58:29;;;;;;;5.15;2.38;;;15.10;53.30;;;;;;2100935;28;20059;-75
2021/01/18 04:59:38;;;;;;;8.05;2.70;;;15.20;53.70;;;;;;2100711;28;20055;-74
2021/01/18 05:00:44;;;;;;;6.60;2.80;;;15.20;53.70;;;;;;2099996;28;20396;-75
2021/01/18 05:01:51;;;;;;;8.13;2.92;;;15.30;53.60;;;;;;2098749;28;20532;-74
2021/01/18 05:02:53;;;;;;;6.00;2.20;;;15.30;53.60;;;;;;2098466;28;20052;-75
2021/01/18 05:04:03;;;;;;;7.93;2.42;;;15.30;53.40;;;;;;2098474;28;20515;-74
2021/01/18 05:05:13;;;;;;;8.38;2.83;;;15.30;53.60;;;;;;2098405;28;20354;-75
2021/01/18 05:06:41;;;;;;;6.13;2.40;;;15.30;53.30;;;;;;2097752;28;20636;-75
2021/01/18 05:08:04;;;;;;;5.32;2.38;;;15.20;53.70;;;;;;2098147;28;20071;-77
2021/01/18 05:09:32;;;;;;;4.88;2.38;;;15.20;53.70;;;;;;2098326;28;20040;-78
2021/01/18 05:10:37;;;;;;;6.78;2.50;;;15.20;53.50;;;;;;2098156;28;20052;-75
2021/01/18 05:11:38;;;;;;;7.32;2.63;;;15.30;53.60;;;;;;2098270;28;20041;-74
2021/01/18 05:12:42;;;;;;;5.35;2.10;;;15.30;53.40;;;;;;2097647;28;20067;-74
2021/01/18 05:13:44;;;;;;;6.22;2.88;;;15.20;53.20;;;;;;2097775;28;20511;-74
2021/01/18 05:14:46;;;;;;;;;;;15.20;53.40;;;;;;2099094;28;20051;-77
2021/01/18 05:15:48;;;;;;;6.20;2.20;;;15.20;53.60;;;;;;2098404;28;19921;-75
2021/01/18 05:16:55;;;;;;;6.57;2.72;;;15.30;53.50;;;;;;2097695;28;20044;-76
2021/01/18 05:17:59;;;;;;;6.55;2.17;;;15.30;53.40;;;;;;2098886;28;20179;-74
2021/01/18 05:19:08;;;;;;;6.93;2.17;;;15.40;53.40;;;;;;2099404;28;20347;-75
2021/01/18 05:20:12;;;;;;;6.05;2.35;;;15.40;53.20;;;;;;2098133;28;20044;-75
2021/01/18 05:21:16;;;;;;;7.40;2.28;;;15.30;53.10;;;;;;2098416;28;20166;-74
2021/01/18 05:22:18;;;;;;;4.78;2.13;;;15.20;52.90;;;;;;2098302;28;20063;-74
2021/01/18 05:23:20;;;;;;;;;;;15.20;53.30;;;;;;2098872;28;20048;-75
2021/01/18 05:24:22;;;;;;;6.25;2.35;;;15.30;53.20;;;;;;2098227;28;20030;-75
2021/01/18 05:25:24;;;;;;;5.82;2.10;;;15.30;53.20;;;;;;2098359;28;20051;-77
2021/01/18 05:26:26;;;;;;;5.63;2.20;;;15.40;53.10;;;;;;2098413;28;20049;-75
2021/01/18 05:27:28;;;;;;;7.55;2.20;;;15.40;53.00;;;;;;2098176;28;20072;-75
2021/01/18 05:28:42;;;;;;;6.05;2.20;;;15.40;53.00;;;;;;2098191;28;20044;-74
2021/01/18 05:29:44;;;;;;;9.07;2.45;;;15.40;53.00;;;;;;2098388;28;20041;-76
2021/01/18 05:30:46;;;;;;;7.50;2.88;;;15.30;52.80;;;;;;2098231;28;20199;-77
2021/01/18 05:31:47;;;;;;;5.18;2.47;;;15.30;53.10;;;;;;2098417;28;20041;-74
2021/01/18 05:33:00;;;;;;;8.07;2.83;;;15.30;53.10;;;;;;2098437;28;20079;-74
2021/01/18 05:34:03;;;;;;;5.43;2.17;;;15.30;52.60;;;;;;2098351;28;20040;-75
2021/01/18 05:35:12;;;;;;;4.03;2.17;;;15.20;53.20;;;;;;2098297;28;20049;-75
2021/01/18 05:36:31;;;;;;;7.07;2.30;;;15.40;53.20;;;;;;2098404;28;20435;-76
2021/01/18 05:37:33;;;;;;;8.52;2.20;;;15.30;53.10;;;;;;2098443;28;20071;-77
2021/01/18 05:38:39;;;;;;;6.78;2.70;;;15.30;53.00;;;;;;2098528;28;20076;-75